sensor_id;sensor_type;location;lat;lon;timestamp;P1;durP1;ratioP1;P2;durP2;ratioP2
73642;SDS011;61938;48.652;9.292;2023-02-28T00:01:19;9.07;;;4.20;;
73642;SDS011;61938;48.652;9.292;2023-02-28T00:03:45;10.68;;;4.07;;
73642;SDS011;61938;48.652;9.292;2023-02-28T00:06:11;7.40;;;3.72;;
73642;SDS011;61938;48.652;9.292;2023-02-28T00:08:37;10.00;;;4.30;;
73642;SDS011;61938;48.652;9.292;2023-02-28T00:11:03;10.70;;;4.07;;
73642;SDS011;61938;48.652;9.292;2023-02-28T00:13:33;8.35;;;4.00;;
73642;SDS011;61938;48.652;9.292;2023-02-28T00:16:03;6.97;;;3.90;;
73642;SDS011;61938;48.652;9.292;2023-02-28T00:18:34;6.85;;;3.90;;
73642;SDS011;61938;48.652;9.292;2023-02-28T00:20:59;7.95;;;4.05;;
73642;SDS011;61938;48.652;9.292;2023-02-28T00:23:25;9.93;;;4.30;;
73642;SDS011;61938;48.652;9.292;2023-02-28T00:25:52;10.27;;;4.97;;
73642;SDS011;61938;48.652;9.292;2023-02-28T00:28:18;7.50;;;4.10;;
73642;SDS011;61938;48.652;9.292;2023-02-28T00:30:44;7.38;;;4.10;;
73642;SDS011;61938;48.652;9.292;2023-02-28T00:33:10;10.63;;;4.50;;
73642;SDS011;61938;48.652;9.292;2023-02-28T00:35:35;7.68;;;4.20;;
73642;SDS011;61938;48.652;9.292;2023-02-28T00:38:01;8.63;;;4.15;;
73642;SDS011;61938;48.652;9.292;2023-02-28T00:40:27;9.65;;;4.18;;
73642;SDS011;61938;48.652;9.292;2023-02-28T00:42:53;9.10;;;4.50;;
73642;SDS011;61938;48.652;9.292;2023-02-28T00:45:18;9.55;;;4.40;;
73642;SDS011;61938;48.652;9.292;2023-02-28T00:47:44;8.15;;;3.90;;
73642;SDS011;61938;48.652;9.292;2023-02-28T00:50:11;9.15;;;4.18;;
73642;SDS011;61938;48.652;9.292;2023-02-28T00:52:37;10.00;;;4.63;;
73642;SDS011;61938;48.652;9.292;2023-02-28T00:55:02;10.45;;;4.90;;
73642;SDS011;61938;48.652;9.292;2023-02-28T00:57:28;11.23;;;4.45;;
73642;SDS011;61938;48.652;9.292;2023-02-28T00:59:54;8.13;;;4.15;;
73642;SDS011;61938;48.652;9.292;2023-02-28T01:02:20;9.43;;;4.63;;
73642;SDS011;61938;48.652;9.292;2023-02-28T01:04:47;10.52;;;3.95;;
73642;SDS011;61938;48.652;9.292;2023-02-28T01:07:12;9.07;;;4.10;;
73642;SDS011;61938;48.652;9.292;2023-02-28T01:09:39;10.60;;;4.40;;
73642;SDS011;61938;48.652;9.292;2023-02-28T01:12:05;8.82;;;3.80;;
73642;SDS011;61938;48.652;9.292;2023-02-28T01:14:32;9.13;;;3.80;;
73642;SDS011;61938;48.652;9.292;2023-02-28T01:16:57;7.53;;;3.70;;
73642;SDS011;61938;48.652;9.292;2023-02-28T01:19:23;6.47;;;3.45;;
73642;SDS011;61938;48.652;9.292;2023-02-28T01:21:48;9.50;;;4.75;;
73642;SDS011;61938;48.652;9.292;2023-02-28T01:24:14;15.98;;;4.47;;
73642;SDS011;61938;48.652;9.292;2023-02-28T01:26:39;9.20;;;4.40;;
73642;SDS011;61938;48.652;9.292;2023-02-28T01:29:05;10.60;;;4.47;;
73642;SDS011;61938;48.652;9.292;2023-02-28T01:31:30;9.82;;;4.57;;
73642;SDS011;61938;48.652;9.292;2023-02-28T01:33:56;12.05;;;4.45;;
73642;SDS011;61938;48.652;9.292;2023-02-28T01:36:22;13.15;;;4.57;;
73642;SDS011;61938;48.652;9.292;2023-02-28T01:38:49;13.43;;;4.85;;
73642;SDS011;61938;48.652;9.292;2023-02-28T01:41:19;9.40;;;4.55;;
73642;SDS011;61938;48.652;9.292;2023-02-28T01:43:52;11.85;;;4.35;;
73642;SDS011;61938;48.652;9.292;2023-02-28T01:46:18;11.32;;;4.55;;
73642;SDS011;61938;48.652;9.292;2023-02-28T01:48:49;10.63;;;4.43;;
73642;SDS011;61938;48.652;9.292;2023-02-28T01:51:25;8.45;;;4.05;;
73642;SDS011;61938;48.652;9.292;2023-02-28T01:53:58;10.38;;;5.47;;
73642;SDS011;61938;48.652;9.292;2023-02-28T01:56:28;11.85;;;5.13;;
73642;SDS011;61938;48.652;9.292;2023-02-28T01:58:55;9.43;;;4.75;;
73642;SDS011;61938;48.652;9.292;2023-02-28T02:01:22;13.05;;;5.00;;
73642;SDS011;61938;48.652;9.292;2023-02-28T02:03:53;11.98;;;4.28;;
73642;SDS011;61938;48.652;9.292;2023-02-28T02:06:22;11.57;;;4.93;;
73642;SDS011;61938;48.652;9.292;2023-02-28T02:08:49;12.65;;;4.80;;
73642;SDS011;61938;48.652;9.292;2023-02-28T02:11:17;8.15;;;4.60;;
73642;SDS011;61938;48.652;9.292;2023-02-28T02:13:52;8.00;;;4.50;;
73642;SDS011;61938;48.652;9.292;2023-02-28T02:20:00;8.55;;;4.75;;
73642;SDS011;61938;48.652;9.292;2023-02-28T02:22:51;9.10;;;4.65;;
73642;SDS011;61938;48.652;9.292;2023-02-28T02:28:08;11.38;;;5.05;;
73642;SDS011;61938;48.652;9.292;2023-02-28T02:33:23;11.07;;;4.93;;
73642;SDS011;61938;48.652;9.292;2023-02-28T02:38:58;13.50;;;5.57;;
73642;SDS011;61938;48.652;9.292;2023-02-28T02:41:45;13.10;;;5.60;;
73642;SDS011;61938;48.652;9.292;2023-02-28T02:46:51;11.35;;;4.93;;
73642;SDS011;61938;48.652;9.292;2023-02-28T02:49:30;12.07;;;5.38;;
73642;SDS011;61938;48.652;9.292;2023-02-28T02:51:57;8.98;;;5.15;;
73642;SDS011;61938;48.652;9.292;2023-02-28T02:54:29;8.88;;;5.20;;
73642;SDS011;61938;48.652;9.292;2023-02-28T02:57:00;17.63;;;5.82;;
73642;SDS011;61938;48.652;9.292;2023-02-28T02:59:31;14.88;;;5.32;;
73642;SDS011;61938;48.652;9.292;2023-02-28T03:01:59;12.98;;;6.20;;
73642;SDS011;61938;48.652;9.292;2023-02-28T03:04:32;14.88;;;6.25;;
73642;SDS011;61938;48.652;9.292;2023-02-28T03:07:07;10.55;;;5.57;;
73642;SDS011;61938;48.652;9.292;2023-02-28T03:09:33;14.23;;;5.80;;
73642;SDS011;61938;48.652;9.292;2023-02-28T03:12:00;11.45;;;5.38;;
73642;SDS011;61938;48.652;9.292;2023-02-28T03:19:51;12.15;;;5.80;;
73642;SDS011;61938;48.652;9.292;2023-02-28T03:27:46;14.88;;;5.40;;
73642;SDS011;61938;48.652;9.292;2023-02-28T03:30:35;11.45;;;5.13;;
73642;SDS011;61938;48.652;9.292;2023-02-28T03:33:14;11.45;;;5.57;;
73642;SDS011;61938;48.652;9.292;2023-02-28T03:35:51;12.02;;;6.07;;
73642;SDS011;61938;48.652;9.292;2023-02-28T03:38:23;12.80;;;6.28;;
73642;SDS011;61938;48.652;9.292;2023-02-28T03:41:05;11.63;;;6.25;;
73642;SDS011;61938;48.652;9.292;2023-02-28T03:43:35;10.38;;;5.95;;
73642;SDS011;61938;48.652;9.292;2023-02-28T03:46:07;16.02;;;5.90;;
73642;SDS011;61938;48.652;9.292;2023-02-28T03:48:37;13.73;;;6.05;;
73642;SDS011;61938;48.652;9.292;2023-02-28T03:51:15;11.85;;;5.80;;
73642;SDS011;61938;48.652;9.292;2023-02-28T03:53:44;10.90;;;5.72;;
73642;SDS011;61938;48.652;9.292;2023-02-28T03:56:17;11.38;;;5.47;;
73642;SDS011;61938;48.652;9.292;2023-02-28T04:01:47;15.73;;;6.63;;
73642;SDS011;61938;48.652;9.292;2023-02-28T04:04:13;10.65;;;6.07;;
73642;SDS011;61938;48.652;9.292;2023-02-28T04:06:40;10.98;;;5.70;;
73642;SDS011;61938;48.652;9.292;2023-02-28T04:09:07;11.93;;;6.35;;
73642;SDS011;61938;48.652;9.292;2023-02-28T04:11:36;17.65;;;6.53;;
73642;SDS011;61938;48.652;9.292;2023-02-28T04:14:04;13.77;;;6.97;;
73642;SDS011;61938;48.652;9.292;2023-02-28T04:16:31;12.85;;;6.00;;
73642;SDS011;61938;48.652;9.292;2023-02-28T04:18:57;16.10;;;6.43;;
73642;SDS011;61938;48.652;9.292;2023-02-28T04:21:30;12.80;;;5.88;;
73642;SDS011;61938;48.652;9.292;2023-02-28T04:23:57;14.90;;;6.88;;
73642;SDS011;61938;48.652;9.292;2023-02-28T04:26:25;12.80;;;6.55;;
73642;SDS011;61938;48.652;9.292;2023-02-28T04:28:53;11.48;;;6.32;;
73642;SDS011;61938;48.652;9.292;2023-02-28T04:31:19;13.68;;;6.78;;
73642;SDS011;61938;48.652;9.292;2023-02-28T04:33:44;13.25;;;6.60;;
73642;SDS011;61938;48.652;9.292;2023-02-28T04:36:09;15.13;;;7.07;;
73642;SDS011;61938;48.652;9.292;2023-02-28T04:38:36;14.32;;;7.10;;
73642;SDS011;61938;48.652;9.292;2023-02-28T04:41:03;13.35;;;6.78;;
73642;SDS011;61938;48.652;9.292;2023-02-28T04:43:29;17.80;;;8.00;;
73642;SDS011;61938;48.652;9.292;2023-02-28T04:45:56;11.05;;;6.78;;
73642;SDS011;61938;48.652;9.292;2023-02-28T04:48:23;13.48;;;7.30;;
73642;SDS011;61938;48.652;9.292;2023-02-28T04:50:50;14.50;;;8.05;;
73642;SDS011;61938;48.652;9.292;2023-02-28T04:53:16;14.07;;;7.07;;
73642;SDS011;61938;48.652;9.292;2023-02-28T04:55:42;16.92;;;7.53;;
73642;SDS011;61938;48.652;9.292;2023-02-28T04:58:07;15.18;;;7.05;;
73642;SDS011;61938;48.652;9.292;2023-02-28T05:00:33;23.42;;;7.50;;
73642;SDS011;61938;48.652;9.292;2023-02-28T05:02:58;14.35;;;7.55;;
73642;SDS011;61938;48.652;9.292;2023-02-28T05:05:23;21.20;;;8.05;;
73642;SDS011;61938;48.652;9.292;2023-02-28T05:07:49;15.15;;;7.45;;
73642;SDS011;61938;48.652;9.292;2023-02-28T05:10:14;13.90;;;7.18;;
73642;SDS011;61938;48.652;9.292;2023-02-28T05:12:40;18.08;;;7.90;;
73642;SDS011;61938;48.652;9.292;2023-02-28T05:15:06;14.77;;;6.93;;
73642;SDS011;61938;48.652;9.292;2023-02-28T05:17:33;13.38;;;7.13;;
73642;SDS011;61938;48.652;9.292;2023-02-28T05:19:58;13.85;;;7.45;;
73642;SDS011;61938;48.652;9.292;2023-02-28T05:22:24;15.38;;;7.53;;
73642;SDS011;61938;48.652;9.292;2023-02-28T05:24:49;11.95;;;6.85;;
73642;SDS011;61938;48.652;9.292;2023-02-28T05:27:15;14.25;;;7.95;;
73642;SDS011;61938;48.652;9.292;2023-02-28T05:29:41;19.42;;;7.88;;
73642;SDS011;61938;48.652;9.292;2023-02-28T05:32:10;15.65;;;7.80;;
73642;SDS011;61938;48.652;9.292;2023-02-28T05:34:37;18.15;;;8.30;;
73642;SDS011;61938;48.652;9.292;2023-02-28T05:37:03;15.98;;;8.35;;
73642;SDS011;61938;48.652;9.292;2023-02-28T05:39:29;15.10;;;7.68;;
73642;SDS011;61938;48.652;9.292;2023-02-28T05:41:54;20.42;;;8.48;;
73642;SDS011;61938;48.652;9.292;2023-02-28T05:44:20;16.55;;;8.30;;
73642;SDS011;61938;48.652;9.292;2023-02-28T05:46:45;14.30;;;7.03;;
73642;SDS011;61938;48.652;9.292;2023-02-28T05:49:11;15.05;;;7.57;;
73642;SDS011;61938;48.652;9.292;2023-02-28T05:51:36;16.90;;;8.23;;
73642;SDS011;61938;48.652;9.292;2023-02-28T05:54:04;15.93;;;7.90;;
73642;SDS011;61938;48.652;9.292;2023-02-28T05:56:31;16.10;;;7.20;;
73642;SDS011;61938;48.652;9.292;2023-02-28T05:58:56;16.52;;;8.07;;
73642;SDS011;61938;48.652;9.292;2023-02-28T06:01:31;15.98;;;8.07;;
73642;SDS011;61938;48.652;9.292;2023-02-28T06:04:08;17.30;;;8.73;;
73642;SDS011;61938;48.652;9.292;2023-02-28T06:06:34;18.35;;;8.35;;
73642;SDS011;61938;48.652;9.292;2023-02-28T06:09:02;17.48;;;9.00;;
73642;SDS011;61938;48.652;9.292;2023-02-28T06:11:30;18.88;;;9.35;;
73642;SDS011;61938;48.652;9.292;2023-02-28T06:13:57;19.63;;;8.95;;
73642;SDS011;61938;48.652;9.292;2023-02-28T06:16:24;19.80;;;9.05;;
73642;SDS011;61938;48.652;9.292;2023-02-28T06:18:51;20.02;;;8.77;;
73642;SDS011;61938;48.652;9.292;2023-02-28T06:21:17;18.70;;;9.07;;
73642;SDS011;61938;48.652;9.292;2023-02-28T06:23:43;19.90;;;9.25;;
73642;SDS011;61938;48.652;9.292;2023-02-28T06:26:08;18.50;;;8.07;;
73642;SDS011;61938;48.652;9.292;2023-02-28T06:28:34;16.85;;;8.20;;
73642;SDS011;61938;48.652;9.292;2023-02-28T06:31:04;18.42;;;9.32;;
73642;SDS011;61938;48.652;9.292;2023-02-28T06:33:34;19.77;;;8.40;;
73642;SDS011;61938;48.652;9.292;2023-02-28T06:36:00;17.77;;;8.32;;
73642;SDS011;61938;48.652;9.292;2023-02-28T06:38:26;18.58;;;8.35;;
73642;SDS011;61938;48.652;9.292;2023-02-28T06:40:55;20.15;;;10.05;;
73642;SDS011;61938;48.652;9.292;2023-02-28T06:43:21;19.63;;;9.20;;
73642;SDS011;61938;48.652;9.292;2023-02-28T06:45:48;19.42;;;9.32;;
73642;SDS011;61938;48.652;9.292;2023-02-28T06:48:13;19.13;;;9.70;;
73642;SDS011;61938;48.652;9.292;2023-02-28T06:50:39;17.63;;;9.00;;
73642;SDS011;61938;48.652;9.292;2023-02-28T06:53:04;20.00;;;9.00;;
73642;SDS011;61938;48.652;9.292;2023-02-28T06:55:30;19.20;;;9.98;;
73642;SDS011;61938;48.652;9.292;2023-02-28T06:57:56;18.38;;;9.23;;
73642;SDS011;61938;48.652;9.292;2023-02-28T07:00:22;22.65;;;10.05;;
73642;SDS011;61938;48.652;9.292;2023-02-28T07:02:48;21.65;;;9.93;;
73642;SDS011;61938;48.652;9.292;2023-02-28T07:05:13;19.75;;;9.50;;
73642;SDS011;61938;48.652;9.292;2023-02-28T07:07:39;20.13;;;9.35;;
73642;SDS011;61938;48.652;9.292;2023-02-28T07:10:09;21.30;;;9.90;;
73642;SDS011;61938;48.652;9.292;2023-02-28T07:12:39;21.85;;;11.52;;
73642;SDS011;61938;48.652;9.292;2023-02-28T07:15:05;19.98;;;9.95;;
73642;SDS011;61938;48.652;9.292;2023-02-28T07:17:31;21.08;;;10.60;;
73642;SDS011;61938;48.652;9.292;2023-02-28T07:19:56;20.65;;;9.60;;
73642;SDS011;61938;48.652;9.292;2023-02-28T07:22:22;20.08;;;9.50;;
73642;SDS011;61938;48.652;9.292;2023-02-28T07:24:47;21.63;;;10.52;;
73642;SDS011;61938;48.652;9.292;2023-02-28T07:27:13;19.35;;;9.50;;
73642;SDS011;61938;48.652;9.292;2023-02-28T07:29:48;22.20;;;10.70;;
73642;SDS011;61938;48.652;9.292;2023-02-28T07:32:17;22.48;;;10.27;;
73642;SDS011;61938;48.652;9.292;2023-02-28T07:34:43;21.17;;;10.57;;
73642;SDS011;61938;48.652;9.292;2023-02-28T07:37:09;18.75;;;10.70;;
73642;SDS011;61938;48.652;9.292;2023-02-28T07:39:35;21.73;;;9.98;;
73642;SDS011;61938;48.652;9.292;2023-02-28T07:42:03;27.80;;;11.75;;
73642;SDS011;61938;48.652;9.292;2023-02-28T07:44:30;21.95;;;10.63;;
73642;SDS011;61938;48.652;9.292;2023-02-28T07:46:55;23.63;;;11.40;;
73642;SDS011;61938;48.652;9.292;2023-02-28T07:49:20;23.98;;;11.85;;
73642;SDS011;61938;48.652;9.292;2023-02-28T07:51:46;25.15;;;11.07;;
73642;SDS011;61938;48.652;9.292;2023-02-28T07:54:12;26.30;;;11.38;;
73642;SDS011;61938;48.652;9.292;2023-02-28T07:56:37;25.42;;;11.35;;
73642;SDS011;61938;48.652;9.292;2023-02-28T07:59:02;20.75;;;10.52;;
73642;SDS011;61938;48.652;9.292;2023-02-28T08:01:28;30.15;;;13.27;;
73642;SDS011;61938;48.652;9.292;2023-02-28T08:03:54;23.33;;;11.38;;
73642;SDS011;61938;48.652;9.292;2023-02-28T08:06:22;27.58;;;11.55;;
73642;SDS011;61938;48.652;9.292;2023-02-28T08:08:49;26.33;;;11.63;;
73642;SDS011;61938;48.652;9.292;2023-02-28T08:11:15;23.08;;;11.77;;
73642;SDS011;61938;48.652;9.292;2023-02-28T08:13:41;22.95;;;11.55;;
73642;SDS011;61938;48.652;9.292;2023-02-28T08:16:08;25.65;;;12.07;;
73642;SDS011;61938;48.652;9.292;2023-02-28T08:18:34;29.55;;;12.55;;
73642;SDS011;61938;48.652;9.292;2023-02-28T08:21:05;28.63;;;12.13;;
73642;SDS011;61938;48.652;9.292;2023-02-28T08:23:31;28.52;;;12.25;;
73642;SDS011;61938;48.652;9.292;2023-02-28T08:25:58;27.20;;;10.55;;
73642;SDS011;61938;48.652;9.292;2023-02-28T08:28:23;26.65;;;11.65;;
73642;SDS011;61938;48.652;9.292;2023-02-28T08:30:49;26.63;;;12.93;;
73642;SDS011;61938;48.652;9.292;2023-02-28T08:33:14;28.83;;;11.85;;
73642;SDS011;61938;48.652;9.292;2023-02-28T08:35:40;29.58;;;12.65;;
73642;SDS011;61938;48.652;9.292;2023-02-28T08:38:05;28.95;;;12.00;;
73642;SDS011;61938;48.652;9.292;2023-02-28T08:40:31;30.40;;;13.07;;
73642;SDS011;61938;48.652;9.292;2023-02-28T08:42:56;27.77;;;13.32;;
73642;SDS011;61938;48.652;9.292;2023-02-28T08:45:22;23.63;;;12.18;;
73642;SDS011;61938;48.652;9.292;2023-02-28T08:47:48;23.67;;;11.63;;
73642;SDS011;61938;48.652;9.292;2023-02-28T08:50:13;28.17;;;11.60;;
73642;SDS011;61938;48.652;9.292;2023-02-28T08:52:41;24.02;;;11.65;;
73642;SDS011;61938;48.652;9.292;2023-02-28T08:55:08;26.15;;;11.93;;
73642;SDS011;61938;48.652;9.292;2023-02-28T08:57:34;23.25;;;11.60;;
73642;SDS011;61938;48.652;9.292;2023-02-28T09:00:00;22.50;;;11.13;;
73642;SDS011;61938;48.652;9.292;2023-02-28T09:02:29;23.80;;;12.82;;
73642;SDS011;61938;48.652;9.292;2023-02-28T09:04:55;22.30;;;12.10;;
73642;SDS011;61938;48.652;9.292;2023-02-28T09:07:20;27.23;;;11.70;;
73642;SDS011;61938;48.652;9.292;2023-02-28T09:09:46;25.63;;;12.57;;
73642;SDS011;61938;48.652;9.292;2023-02-28T09:12:24;26.88;;;12.43;;
73642;SDS011;61938;48.652;9.292;2023-02-28T09:14:50;26.15;;;11.98;;
73642;SDS011;61938;48.652;9.292;2023-02-28T09:17:16;30.75;;;12.05;;
73642;SDS011;61938;48.652;9.292;2023-02-28T09:19:42;24.00;;;11.88;;
73642;SDS011;61938;48.652;9.292;2023-02-28T09:22:08;27.50;;;11.38;;
73642;SDS011;61938;48.652;9.292;2023-02-28T09:24:36;24.50;;;11.95;;
73642;SDS011;61938;48.652;9.292;2023-02-28T09:27:02;33.53;;;15.73;;
73642;SDS011;61938;48.652;9.292;2023-02-28T09:29:28;27.40;;;14.00;;
73642;SDS011;61938;48.652;9.292;2023-02-28T09:31:53;24.95;;;12.30;;
73642;SDS011;61938;48.652;9.292;2023-02-28T09:34:19;25.50;;;11.77;;
73642;SDS011;61938;48.652;9.292;2023-02-28T09:36:45;30.52;;;12.95;;
73642;SDS011;61938;48.652;9.292;2023-02-28T09:39:11;30.77;;;14.25;;
73642;SDS011;61938;48.652;9.292;2023-02-28T09:41:38;29.05;;;11.63;;
73642;SDS011;61938;48.652;9.292;2023-02-28T09:44:12;25.85;;;11.45;;
73642;SDS011;61938;48.652;9.292;2023-02-28T09:46:53;23.42;;;11.55;;
73642;SDS011;61938;48.652;9.292;2023-02-28T09:49:23;22.60;;;11.63;;
73642;SDS011;61938;48.652;9.292;2023-02-28T09:51:58;27.13;;;12.90;;
73642;SDS011;61938;48.652;9.292;2023-02-28T09:54:35;34.20;;;16.08;;
73642;SDS011;61938;48.652;9.292;2023-02-28T09:59:39;24.27;;;11.60;;
73642;SDS011;61938;48.652;9.292;2023-02-28T10:02:23;23.80;;;11.18;;
73642;SDS011;61938;48.652;9.292;2023-02-28T10:05:12;26.70;;;11.90;;
73642;SDS011;61938;48.652;9.292;2023-02-28T10:08:00;24.60;;;10.85;;
73642;SDS011;61938;48.652;9.292;2023-02-28T10:10:45;23.88;;;12.27;;
73642;SDS011;61938;48.652;9.292;2023-02-28T10:13:16;21.67;;;11.80;;
73642;SDS011;61938;48.652;9.292;2023-02-28T10:16:03;28.38;;;12.48;;
73642;SDS011;61938;48.652;9.292;2023-02-28T10:18:43;31.63;;;12.25;;
73642;SDS011;61938;48.652;9.292;2023-02-28T10:21:16;23.33;;;11.73;;
73642;SDS011;61938;48.652;9.292;2023-02-28T10:23:45;29.95;;;13.32;;
73642;SDS011;61938;48.652;9.292;2023-02-28T10:26:13;26.90;;;12.52;;
73642;SDS011;61938;48.652;9.292;2023-02-28T10:28:41;26.17;;;12.93;;
73642;SDS011;61938;48.652;9.292;2023-02-28T10:31:08;26.15;;;12.20;;
73642;SDS011;61938;48.652;9.292;2023-02-28T10:33:38;26.55;;;12.02;;
73642;SDS011;61938;48.652;9.292;2023-02-28T10:36:04;25.02;;;12.77;;
73642;SDS011;61938;48.652;9.292;2023-02-28T10:38:35;26.60;;;12.95;;
73642;SDS011;61938;48.652;9.292;2023-02-28T10:41:03;24.05;;;12.02;;
73642;SDS011;61938;48.652;9.292;2023-02-28T10:43:29;26.33;;;13.50;;
73642;SDS011;61938;48.652;9.292;2023-02-28T10:48:43;18.10;;;9.02;;
73642;SDS011;61938;48.652;9.292;2023-02-28T10:51:33;24.08;;;11.65;;
73642;SDS011;61938;48.652;9.292;2023-02-28T10:54:04;23.90;;;12.05;;
73642;SDS011;61938;48.652;9.292;2023-02-28T10:56:30;30.55;;;12.55;;
73642;SDS011;61938;48.652;9.292;2023-02-28T10:58:58;22.17;;;11.95;;
73642;SDS011;61938;48.652;9.292;2023-02-28T11:06:43;27.88;;;13.45;;
73642;SDS011;61938;48.652;9.292;2023-02-28T11:09:20;25.58;;;12.70;;
73642;SDS011;61938;48.652;9.292;2023-02-28T11:11:49;25.65;;;12.95;;
73642;SDS011;61938;48.652;9.292;2023-02-28T11:14:19;27.85;;;12.48;;
73642;SDS011;61938;48.652;9.292;2023-02-28T11:16:49;24.45;;;12.27;;
73642;SDS011;61938;48.652;9.292;2023-02-28T11:19:23;24.77;;;11.63;;
73642;SDS011;61938;48.652;9.292;2023-02-28T11:22:16;22.08;;;12.05;;
73642;SDS011;61938;48.652;9.292;2023-02-28T11:24:46;27.00;;;12.77;;
73642;SDS011;61938;48.652;9.292;2023-02-28T11:27:24;23.30;;;11.60;;
73642;SDS011;61938;48.652;9.292;2023-02-28T11:29:59;26.77;;;12.93;;
73642;SDS011;61938;48.652;9.292;2023-02-28T11:32:26;23.63;;;12.48;;
73642;SDS011;61938;48.652;9.292;2023-02-28T11:37:34;24.80;;;13.00;;
73642;SDS011;61938;48.652;9.292;2023-02-28T11:40:00;26.00;;;12.63;;
73642;SDS011;61938;48.652;9.292;2023-02-28T11:42:36;24.30;;;11.88;;
73642;SDS011;61938;48.652;9.292;2023-02-28T11:45:18;28.42;;;13.02;;
73642;SDS011;61938;48.652;9.292;2023-02-28T11:47:54;25.08;;;12.43;;
73642;SDS011;61938;48.652;9.292;2023-02-28T11:58:52;27.90;;;13.32;;
73642;SDS011;61938;48.652;9.292;2023-02-28T12:04:39;22.20;;;12.55;;
73642;SDS011;61938;48.652;9.292;2023-02-28T12:13:05;27.00;;;12.48;;
73642;SDS011;61938;48.652;9.292;2023-02-28T12:18:41;21.70;;;12.15;;
73642;SDS011;61938;48.652;9.292;2023-02-28T12:24:07;25.27;;;12.38;;
73642;SDS011;61938;48.652;9.292;2023-02-28T12:26:55;25.85;;;12.82;;
73642;SDS011;61938;48.652;9.292;2023-02-28T12:31:59;23.65;;;11.98;;
73642;SDS011;61938;48.652;9.292;2023-02-28T12:34:33;27.40;;;12.73;;
73642;SDS011;61938;48.652;9.292;2023-02-28T12:37:06;26.90;;;13.95;;
73642;SDS011;61938;48.652;9.292;2023-02-28T12:39:36;27.87;;;14.10;;
73642;SDS011;61938;48.652;9.292;2023-02-28T12:42:26;20.48;;;11.30;;
73642;SDS011;61938;48.652;9.292;2023-02-28T12:44:56;24.52;;;12.20;;
73642;SDS011;61938;48.652;9.292;2023-02-28T12:47:24;22.88;;;12.43;;
73642;SDS011;61938;48.652;9.292;2023-02-28T12:52:25;29.08;;;12.75;;
73642;SDS011;61938;48.652;9.292;2023-02-28T12:55:04;23.52;;;12.38;;
73642;SDS011;61938;48.652;9.292;2023-02-28T13:00:24;26.67;;;12.98;;
73642;SDS011;61938;48.652;9.292;2023-02-28T13:03:14;26.73;;;12.75;;
73642;SDS011;61938;48.652;9.292;2023-02-28T13:09:03;24.20;;;13.27;;
73642;SDS011;61938;48.652;9.292;2023-02-28T13:11:33;25.75;;;13.20;;
73642;SDS011;61938;48.652;9.292;2023-02-28T13:14:05;22.33;;;12.02;;
73642;SDS011;61938;48.652;9.292;2023-02-28T13:17:01;19.20;;;11.70;;
73642;SDS011;61938;48.652;9.292;2023-02-28T13:19:35;31.30;;;13.10;;
73642;SDS011;61938;48.652;9.292;2023-02-28T13:22:04;21.83;;;12.52;;
73642;SDS011;61938;48.652;9.292;2023-02-28T13:29:39;34.05;;;13.18;;
73642;SDS011;61938;48.652;9.292;2023-02-28T13:34:36;21.10;;;11.77;;
73642;SDS011;61938;48.652;9.292;2023-02-28T13:39:51;23.63;;;12.70;;
73642;SDS011;61938;48.652;9.292;2023-02-28T13:42:51;14.88;;;8.63;;
73642;SDS011;61938;48.652;9.292;2023-02-28T13:45:21;22.27;;;12.40;;
73642;SDS011;61938;48.652;9.292;2023-02-28T13:47:52;22.80;;;12.50;;
73642;SDS011;61938;48.652;9.292;2023-02-28T13:50:29;24.70;;;11.98;;
73642;SDS011;61938;48.652;9.292;2023-02-28T14:01:51;29.45;;;12.15;;
73642;SDS011;61938;48.652;9.292;2023-02-28T14:07:04;21.65;;;11.18;;
73642;SDS011;61938;48.652;9.292;2023-02-28T14:09:38;19.55;;;11.20;;
73642;SDS011;61938;48.652;9.292;2023-02-28T14:17:58;24.52;;;11.35;;
73642;SDS011;61938;48.652;9.292;2023-02-28T14:20:26;20.13;;;11.85;;
73642;SDS011;61938;48.652;9.292;2023-02-28T14:25:47;21.15;;;11.68;;
73642;SDS011;61938;48.652;9.292;2023-02-28T14:31:10;51.65;;;12.48;;
73642;SDS011;61938;48.652;9.292;2023-02-28T14:33:42;22.10;;;11.25;;
73642;SDS011;61938;48.652;9.292;2023-02-28T14:36:31;25.92;;;12.05;;
73642;SDS011;61938;48.652;9.292;2023-02-28T14:39:00;31.67;;;15.10;;
73642;SDS011;61938;48.652;9.292;2023-02-28T14:41:36;21.55;;;12.60;;
73642;SDS011;61938;48.652;9.292;2023-02-28T14:46:43;20.88;;;11.23;;
73642;SDS011;61938;48.652;9.292;2023-02-28T14:51:49;22.42;;;11.98;;
73642;SDS011;61938;48.652;9.292;2023-02-28T14:54:26;19.80;;;10.70;;
73642;SDS011;61938;48.652;9.292;2023-02-28T14:56:51;20.25;;;11.13;;
73642;SDS011;61938;48.652;9.292;2023-02-28T14:59:25;21.63;;;11.45;;
73642;SDS011;61938;48.652;9.292;2023-02-28T15:02:17;21.80;;;11.77;;
73642;SDS011;61938;48.652;9.292;2023-02-28T15:04:56;20.85;;;11.27;;
73642;SDS011;61938;48.652;9.292;2023-02-28T15:07:24;23.35;;;12.13;;
73642;SDS011;61938;48.652;9.292;2023-02-28T15:10:06;32.30;;;12.15;;
73642;SDS011;61938;48.652;9.292;2023-02-28T15:12:34;23.25;;;12.07;;
73642;SDS011;61938;48.652;9.292;2023-02-28T15:15:00;25.75;;;12.20;;
73642;SDS011;61938;48.652;9.292;2023-02-28T15:17:26;23.02;;;11.52;;
73642;SDS011;61938;48.652;9.292;2023-02-28T15:19:52;20.77;;;11.23;;
73642;SDS011;61938;48.652;9.292;2023-02-28T15:22:21;22.17;;;11.23;;
73642;SDS011;61938;48.652;9.292;2023-02-28T15:24:54;21.25;;;11.68;;
73642;SDS011;61938;48.652;9.292;2023-02-28T15:27:24;23.10;;;11.40;;
73642;SDS011;61938;48.652;9.292;2023-02-28T15:29:56;22.70;;;10.93;;
73642;SDS011;61938;48.652;9.292;2023-02-28T15:32:24;20.98;;;11.57;;
73642;SDS011;61938;48.652;9.292;2023-02-28T15:34:53;22.40;;;11.93;;
73642;SDS011;61938;48.652;9.292;2023-02-28T15:40:15;20.10;;;11.18;;
73642;SDS011;61938;48.652;9.292;2023-02-28T15:42:41;23.67;;;11.30;;
73642;SDS011;61938;48.652;9.292;2023-02-28T15:47:57;21.13;;;12.00;;
73642;SDS011;61938;48.652;9.292;2023-02-28T15:50:22;24.20;;;11.80;;
73642;SDS011;61938;48.652;9.292;2023-02-28T15:52:49;22.55;;;12.00;;
73642;SDS011;61938;48.652;9.292;2023-02-28T15:57:46;19.03;;;9.73;;
73642;SDS011;61938;48.652;9.292;2023-02-28T16:00:16;23.17;;;12.52;;
73642;SDS011;61938;48.652;9.292;2023-02-28T16:02:45;24.85;;;11.90;;
73642;SDS011;61938;48.652;9.292;2023-02-28T16:07:37;23.75;;;11.90;;
73642;SDS011;61938;48.652;9.292;2023-02-28T16:10:05;22.05;;;10.98;;
73642;SDS011;61938;48.652;9.292;2023-02-28T16:12:33;23.13;;;11.68;;
73642;SDS011;61938;48.652;9.292;2023-02-28T16:15:01;24.13;;;11.73;;
73642;SDS011;61938;48.652;9.292;2023-02-28T16:17:35;23.48;;;11.88;;
73642;SDS011;61938;48.652;9.292;2023-02-28T16:20:16;25.10;;;12.02;;
73642;SDS011;61938;48.652;9.292;2023-02-28T16:22:44;33.13;;;12.45;;
73642;SDS011;61938;48.652;9.292;2023-02-28T16:25:14;26.33;;;13.73;;
73642;SDS011;61938;48.652;9.292;2023-02-28T16:27:42;23.05;;;12.05;;
73642;SDS011;61938;48.652;9.292;2023-02-28T16:30:14;21.60;;;12.48;;
73642;SDS011;61938;48.652;9.292;2023-02-28T16:32:44;24.10;;;12.48;;
73642;SDS011;61938;48.652;9.292;2023-02-28T16:35:10;23.17;;;11.63;;
73642;SDS011;61938;48.652;9.292;2023-02-28T16:37:36;23.77;;;12.18;;
73642;SDS011;61938;48.652;9.292;2023-02-28T16:40:02;26.02;;;12.82;;
73642;SDS011;61938;48.652;9.292;2023-02-28T16:42:28;23.17;;;12.13;;
73642;SDS011;61938;48.652;9.292;2023-02-28T16:44:55;21.80;;;12.00;;
73642;SDS011;61938;48.652;9.292;2023-02-28T16:47:21;23.40;;;12.60;;